CW3782 Weather Reports


time (UTC)temp
F
wind
direction
speed
knots
gust
knots
rain 1hr
in
rain 24hr
in
rain mn
in
humidity
%
barometer
mb
20211026175200 69 346 0.9 7.0 0.00 0.64 0.00 57 1003.1
20211026174700 69 284 2.6 6.1 0.00 0.64 0.00 58 1003.1
20211026174201 68 288 1.7 6.1 0.00 0.64 0.00 58 1003.5
20211026173200 69 277 2.6 6.1 0.00 0.64 0.00 57 1003.6
20211026172659 69 273 0.9 5.2 0.00 0.64 0.00 58 1003.6
20211026170700 68 330 0.0 0.0 0.00 0.64 0.00 60 1004.0
20211026170200 68 265 1.7 5.2 0.00 0.64 0.00 60 1004.0
20211026165659 68 289 2.6 7.0 0.00 0.64 0.00 60 1004.1
20211026165200 67 280 0.0 4.3 0.00 0.64 0.00 65 1004.1
20211026164701 67 287 5.2 7.0 0.00 0.64 0.00 59 1004.1
20211026163200 67 297 0.9 5.2 0.00 0.64 0.00 64 1004.5
20211026162659 66 355 0.0 4.3 0.00 0.64 0.00 67 1004.6
20211026161700 66 302 1.7 5.2 0.00 0.64 0.00 66 1004.7
20211026161200 64 338 1.7 7.0 0.00 0.64 0.00 64 1004.9
20211026160700 64 336 0.0 0.0 0.00 0.64 0.00 68 1004.9
20211026160200 64 288 0.0 0.0 0.00 0.64 0.00 69 1004.9
20211026155700 63 342 0.0 0.0 0.00 0.64 0.00 69 1005.0
20211026154700 63 346 0.0 0.0 0.00 0.64 0.00 70 1005.1
20211026153700 62 284 0.0 0.0 0.00 0.64 0.00 74 1005.1
20211026153159 62 284 0.0 0.0 0.00 0.64 0.00 73 1005.0
20211026152700 62 280 0.0 0.0 0.00 0.64 0.00 74 1005.0
20211026151700 61 315 0.0 0.0 0.00 0.64 0.00 76 1004.8
20211026151200 60 354 0.0 0.0 0.00 0.64 0.00 77 1004.7
20211026150200 60 226 0.0 0.0 0.00 0.64 0.00 80 1004.6
20211026145700 59 335 0.0 0.0 0.00 0.64 0.00 81 1004.7
20211026145200 59 284 0.0 0.0 0.00 0.64 0.00 83 1004.7
20211026144200 59 312 0.0 0.0 0.00 0.64 0.00 86 1004.8
20211026143201 58 282 0.0 0.0 0.00 0.67 0.00 87 1005.0
20211026142700 58 325 0.0 0.0 0.00 0.79 0.00 88 1005.1
20211026142200 58 250 0.0 0.0 0.00 0.79 0.00 89 1005.1
20211026141159 57 267 0.0 0.0 0.00 0.80 0.00 90 1005.2
20211026140700 57 267 0.0 0.0 0.00 0.80 0.00 90 1005.2
20211026135700 57 273 0.0 0.0 0.00 0.80 0.00 92 1005.2
20211026135200 56 209 0.0 0.0 0.00 0.80 0.00 92 1005.2
20211026134700 56 277 0.0 0.0 0.00 0.80 0.00 92 1005.2
20211026134201 56 286 0.0 0.0 0.00 0.80 0.00 92 1005.2
20211026133700 56 284 0.0 0.0 0.00 0.80 0.00 93 1005.2
20211026132700 56 213 0.0 0.0 0.00 0.80 0.00 93 1005.1
20211026132200 55 260 0.0 0.0 0.00 0.80 0.00 93 1005.0
20211026131201 55 269 0.0 0.0 0.00 0.80 0.00 93 1005.1
20211026130700 55 269 0.0 0.0 0.00 0.80 0.00 94 1005.0
20211026130200 55 269 0.0 0.0 0.00 0.80 0.00 94 1004.9
20211026124700 55 281 0.0 0.0 0.00 0.80 0.00 94 1004.9
20211026122701 55 291 0.0 0.0 0.00 0.80 0.00 94 1004.6
20211026122201 55 291 0.0 0.0 0.00 0.80 0.00 94 1004.6
20211026121700 55 291 0.0 0.0 0.00 0.80 0.00 94 1004.6
20211026121200 55 291 0.0 0.0 0.00 0.80 0.00 94 1004.6
20211026120700 55 290 0.0 0.0 0.00 0.80 0.00 94 1004.5
20211026120200 55 292 0.0 0.0 0.00 0.80 0.00 94 1004.6
20211026115700 55 292 0.0 0.0 0.00 0.80 0.00 94 1004.6
20211026115200 55 292 0.0 0.0 0.00 0.80 0.00 94 1004.6
20211026114201 55 292 0.0 0.0 0.00 0.80 0.00 94 1004.6
20211026113200 56 292 0.0 0.0 0.00 0.80 0.00 94 1004.6
20211026112700 56 290 0.0 0.0 0.00 0.80 0.00 94 1004.5
20211026112200 56 290 0.0 0.0 0.00 0.80 0.00 94 1004.5
20211026111701 56 290 0.0 0.0 0.00 0.80 0.00 94 1004.6
20211026111200 56 289 0.0 0.0 0.00 0.80 0.00 94 1004.5
20211026110701 57 289 0.0 0.0 0.00 0.80 0.00 94 1004.3
20211026110200 57 289 0.0 0.0 0.00 0.80 0.00 94 1004.2
20211026105700 57 284 0.0 0.0 0.00 0.80 0.00 94 1004.2
20211026105200 57 286 0.0 0.0 0.00 0.80 0.00 94 1004.1
20211026104700 58 287 0.0 0.0 0.00 0.80 0.00 94 1004.1
20211026103701 58 303 0.0 0.0 0.00 0.80 0.00 95 1003.8
20211026103200 58 296 0.0 0.0 0.00 0.80 0.00 95 1003.7
20211026102700 58 285 0.0 0.0 0.00 0.80 0.00 95 1003.6
20211026101700 59 337 0.0 0.0 0.00 0.80 0.00 95 1003.4
20211026101201 59 338 0.0 0.0 0.00 0.80 0.00 95 1003.1
20211026100201 59 338 0.0 0.0 0.00 0.80 0.00 95 1002.9
20211026095701 59 338 0.0 0.0 0.00 0.80 0.00 95 1002.9
20211026095201 59 338 0.0 0.0 0.00 0.80 0.00 95 1003.0
20211026094701 59 338 0.0 0.0 0.00 0.80 0.00 95 1003.0
20211026094200 59 338 0.0 0.0 0.00 0.80 0.00 95 1003.0
20211026093201 59 338 0.0 0.0 0.00 0.80 0.00 95 1003.0
20211026092701 59 338 0.0 0.0 0.00 0.80 0.00 95 1003.0
20211026091201 60 338 0.0 0.0 0.00 0.80 0.00 95 1003.0
20211026090201 60 338 0.0 0.0 0.00 0.80 0.00 95 1003.0
20211026085701 60 338 0.0 0.0 0.00 0.80 0.00 95 1002.9
20211026084701 60 338 0.0 0.0 0.00 0.80 0.00 94 1002.8
20211026084201 60 338 0.0 0.0 0.00 0.80 0.00 94 1002.7
20211026082200 61 344 0.0 0.0 0.00 0.80 0.00 94 1002.6
20211026081701 62 344 0.0 0.0 0.00 0.80 0.00 94 1002.5
20211026081200 62 338 0.0 0.0 0.00 0.80 0.00 94 1002.5
20211026080701 62 289 0.0 0.0 0.00 0.80 0.00 94 1002.5
20211026080200 62 289 0.0 0.0 0.00 0.80 0.00 94 1002.5
20211026075200 63 289 0.0 0.0 0.00 0.80 0.00 94 1002.4
20211026074700 63 289 0.0 0.0 0.00 0.80 0.00 94 1002.4
20211026074202 63 289 0.0 0.0 0.00 0.80 0.00 94 1002.4
20211026073700 63 289 0.0 0.0 0.00 0.80 0.00 94 1002.3
20211026072700 63 289 0.0 0.0 0.00 0.80 0.00 94 1002.3
20211026072200 63 289 0.0 0.0 0.00 0.80 0.00 94 1002.1
20211026070701 63 289 0.0 0.0 0.00 0.80 0.00 94 1002.2
20211026070200 63 289 0.0 0.0 0.00 0.80 0.00 94 1002.1
20211026065700 63 289 0.0 0.0 0.00 0.80 0.00 94 1002.2
20211026065200 63 289 0.0 0.0 0.00 0.80 0.00 94 1002.2
20211026064702 63 289 0.0 0.0 0.00 0.80 0.00 94 1002.1
20211026064200 63 289 0.0 0.0 0.00 0.80 0.00 94 1002.0
20211026063701 64 289 0.0 0.0 0.00 0.80 0.00 94 1002.0
20211026063200 64 289 0.0 0.0 0.00 0.80 0.00 93 1002.0
20211026062700 64 289 0.0 0.0 0.00 0.80 0.00 93 1002.0
20211026062200 64 289 0.0 0.0 0.00 0.80 0.00 93 1002.0
20211026061201 64 289 0.0 0.0 0.00 0.80 0.00 93 1002.2
20211026060200 64 289 0.0 0.0 0.00 0.80 0.00 93 1002.2
20211026055700 64 289 0.0 0.0 0.00 0.80 0.00 93 1002.3
20211026054701 64 289 0.0 0.0 0.00 0.80 0.00 93 1002.5
20211026054200 64 289 0.0 0.0 0.00 0.80 0.00 93 1002.5
20211026053701 64 289 0.0 0.0 0.00 0.80 0.00 92 1002.5
20211026053200 64 289 0.0 0.0 0.00 0.80 0.00 92 1002.7
20211026052200 64 289 0.0 0.0 0.00 0.80 0.00 92 1002.7
20211026051702 64 289 0.0 0.0 0.00 0.80 0.00 92 1002.8
20211026051201 65 289 0.0 0.0 0.00 0.80 0.00 92 1002.9
20211026050201 65 236 0.0 0.0 0.00 0.80 0.00 91 1003.0
20211026045700 65 234 0.0 0.0 0.00 0.80 0.80 91 1003.0
20211026045201 65 234 0.0 0.0 0.00 0.80 0.80 91 1003.0
20211026044700 65 234 0.0 0.0 0.00 0.80 0.80 91 1003.1
20211026043201 65 234 0.0 0.0 0.00 0.80 0.80 90 1003.2
20211026042701 65 234 0.0 0.0 0.00 0.80 0.80 90 1003.3
20211026042201 65 234 0.0 0.0 0.00 0.80 0.80 90 1003.3
20211026040701 65 234 0.0 0.0 0.00 0.80 0.80 89 1003.2
20211026035701 65 234 0.0 0.0 0.00 0.80 0.80 89 1003.5
20211026034701 66 234 0.0 0.0 0.00 0.80 0.80 89 1003.6
20211026034201 66 234 0.0 0.0 0.15 0.80 0.80 89 1003.6
20211026033701 66 234 0.0 0.0 0.43 0.80 0.80 89 1003.6
20211026033200 66 234 0.0 0.0 0.63 0.80 0.80 89 1003.6
20211026032201 67 234 0.0 0.0 0.64 0.80 0.80 87 1003.8
20211026031701 67 234 0.0 0.0 0.64 0.80 0.80 87 1003.9
20211026031201 67 234 0.0 0.0 0.64 0.80 0.80 87 1003.7
20211026030701 67 234 0.0 0.0 0.64 0.80 0.80 86 1003.6
20211026025201 69 237 0.0 0.0 0.64 0.80 0.80 85 1003.7
20211026024701 69 236 0.0 0.0 0.64 0.80 0.80 84 1004.0
20211026024201 70 295 0.0 0.0 0.49 0.65 0.65 84 1004.3
20211026023700 70 326 0.9 5.2 0.21 0.37 0.37 84 1004.0
20211026023201 71 309 0.0 6.1 0.01 0.17 0.17 85 1003.8
20211026022702 71 2 0.0 0.0 0.00 0.16 0.16 85 1003.5
20211026022201 71 5 0.0 0.0 0.00 0.16 0.16 85 1003.3
20211026021702 71 15 0.0 0.0 0.00 0.16 0.16 84 1003.0
20211026021200 71 20 0.0 0.0 0.00 0.16 0.16 84 1002.6
20211026020701 71 26 0.0 2.6 0.00 0.16 0.16 84 1002.4
20211026015701 71 355 0.0 0.0 0.00 0.16 0.16 83 1002.5
20211026015201 71 127 0.0 2.6 0.00 0.16 0.16 83 1002.8
20211026013700 71 141 0.0 2.6 0.00 0.16 0.16 83 1003.0
20211026013201 71 44 0.0 2.6 0.00 0.16 0.16 82 1003.0
20211026012701 71 342 0.0 2.6 0.00 0.16 0.16 82 1003.0
20211026011701 71 180 0.9 4.3 0.00 0.16 0.16 82 1003.0
20211026011202 71 178 0.0 1.7 0.00 0.16 0.16 82 1003.0
20211026010202 71 171 0.0 0.9 0.00 0.16 0.16 82 1003.0
20211026004701 72 93 0.0 11.3 0.00 0.16 0.16 81 1003.2
20211026004201 72 0 0.0 0.0 0.00 0.16 0.16 81 1003.1
20211026003701 72 250 0.0 0.0 0.00 0.16 0.16 81 1003.3
20211026003201 72 106 0.0 0.0 0.00 0.16 0.16 81 1003.3
20211026002701 72 74 0.0 1.7 0.00 0.16 0.16 80 1003.5
20211026002201 72 164 0.0 0.0 0.00 0.16 0.16 80 1003.6
20211026001201 72 216 0.0 0.0 0.00 0.16 0.16 79 1003.7
20211026000702 72 243 0.0 1.7 0.00 0.16 0.16 79 1003.5
20211026000201 72 75 0.0 0.9 0.00 0.16 0.16 79 1003.5
20211025235701 72 147 0.0 4.3 0.00 0.16 0.16 78 1003.6
20211025234701 72 302 0.0 0.0 0.00 0.16 0.16 78 1004.1
20211025233701 72 299 0.0 0.0 0.00 0.16 0.16 77 1004.0
20211025232701 73 261 0.0 0.0 0.00 0.16 0.16 76 1004.0
20211025232201 73 120 0.0 0.0 0.00 0.16 0.16 76 1004.0
20211025231701 73 354 0.0 0.0 0.00 0.16 0.16 75 1004.1
20211025230701 73 23 0.0 0.0 0.00 0.16 0.16 74 1004.3
20211025225701 73 26 0.0 0.0 0.00 0.16 0.16 74 1004.3
20211025224701 74 213 0.0 0.0 0.00 0.16 0.16 73 1004.5
20211025224201 74 350 0.0 1.7 0.00 0.16 0.16 72 1004.5
20211025223701 74 5 0.0 4.3 0.00 0.16 0.16 72 1004.6
20211025223201 74 96 0.0 0.0 0.00 0.16 0.16 71 1004.6
20211025222701 75 110 0.0 0.0 0.00 0.16 0.16 71 1004.6
20211025222201 75 43 0.0 0.0 0.00 0.16 0.16 71 1004.7
20211025221701 75 332 0.0 0.9 0.00 0.16 0.16 70 1005.0
20211025221202 75 34 0.0 5.2 0.00 0.16 0.16 70 1005.0
20211025220702 75 22 0.0 4.3 0.00 0.16 0.16 70 1005.1
20211025215701 76 72 0.0 0.0 0.00 0.16 0.16 69 1005.3
20211025215201 76 288 0.0 0.9 0.00 0.16 0.16 69 1005.4
20211025214702 76 60 0.0 0.0 0.00 0.16 0.16 68 1005.5
20211025214201 76 70 0.9 5.2 0.00 0.16 0.16 68 1005.4
20211025212701 76 355 0.0 0.0 0.00 0.16 0.16 67 1005.6
20211025212201 77 22 0.0 0.0 0.00 0.16 0.16 67 1005.6
20211025211201 77 40 0.0 2.6 0.00 0.16 0.16 67 1005.7
20211025210702 77 38 0.9 2.6 0.00 0.16 0.16 66 1005.8
20211025205701 77 357 0.0 0.0 0.00 0.16 0.16 66 1006.1
20211025204701 77 66 0.0 0.0 0.00 0.16 0.16 65 1006.2
20211025204201 78 351 0.0 0.0 0.00 0.16 0.16 65 1006.3
20211025203202 78 100 0.0 0.0 0.00 0.16 0.16 64 1006.2
20211025202201 78 55 0.9 2.6 0.00 0.16 0.16 64 1006.2
20211025201701 78 0 0.9 4.3 0.00 0.16 0.16 64 1006.2
20211025200701 78 116 0.0 0.0 0.00 0.16 0.16 62 1006.3
20211025200201 79 31 0.0 0.0 0.00 0.16 0.16 62 1006.3
20211025195701 79 107 0.0 0.0 0.00 0.16 0.16 62 1006.4
20211025195201 79 186 0.0 0.0 0.00 0.16 0.16 62 1006.6
20211025194701 79 252 0.0 0.0 0.00 0.16 0.16 61 1006.6
20211025194202 79 200 0.0 0.0 0.00 0.16 0.16 60 1006.7
20211025193701 79 62 0.0 0.0 0.00 0.16 0.16 59 1006.7
20211025192201 79 87 0.0 2.6 0.00 0.16 0.16 61 1007.0
20211025191702 79 286 0.9 2.6 0.00 0.16 0.16 60 1006.8
20211025190702 79 45 0.9 5.2 0.00 0.16 0.16 60 1007.1
20211025190202 79 244 0.0 2.6 0.00 0.16 0.16 61 1007.1
20211025185701 78 351 0.0 0.9 0.00 0.16 0.16 61 1007.3
20211025184701 79 47 0.0 7.0 0.00 0.16 0.16 57 1007.6
20211025184201 79 104 0.0 2.6 0.00 0.16 0.16 59 1007.6
20211025183201 79 23 0.0 0.9 0.00 0.16 0.16 60 1007.9
20211025182701 79 57 0.0 1.7 0.00 0.16 0.16 62 1008.0
20211025182201 79 44 0.9 5.2 0.00 0.16 0.16 60 1008.2
20211025181202 78 263 0.0 2.6 0.00 0.16 0.16 64 1008.3
20211025180702 78 355 0.0 0.9 0.00 0.16 0.16 67 1008.5